<?xml version="1.0" encoding="UTF-8" standalone="no" ?>
<gpx xmlns="http://www.topografix.com/GPX/1/1" xmlns:xsi="http://www.w3.org/2001/XMLSchema-instance" xsi:schemaLocation="http://www.topografix.com/GPX/1/1 http://www.topografix.com/GPX/1/1/gpx.xsd" version="1.1" creator="VisuGPX - https://www.visugpx.com">
  <metadata>
    <name>Ski rando / Pic de Tracens - 2551m</name>
  </metadata>
  <wpt lat="42.88306" lon="0.11223">
    <ele>1741</ele>
    <name><![CDATA[Bifurcation-1741m]]></name>
    <desc><![CDATA[Bifurcation-1741m]]></desc>
    <cmt><![CDATA[Bifurcation-1741m]]></cmt>
  </wpt>
  <wpt lat="42.87741" lon="0.11263">
    <ele>2040</ele>
    <name><![CDATA[Cabane Dets Coubous]]></name>
    <desc><![CDATA[Cabane Dets Coubous]]></desc>
    <cmt><![CDATA[Cabane Dets Coubous]]></cmt>
  </wpt>
  <wpt lat="42.86479" lon="0.13437">
    <ele>2461</ele>
    <name><![CDATA[Col de Tracens]]></name>
    <desc><![CDATA[Col de Tracens]]></desc>
    <cmt><![CDATA[Col de Tracens]]></cmt>
  </wpt>
  <wpt lat="42.90365" lon="0.10162">
    <ele>1449.4</ele>
    <name><![CDATA[Depart-Barege-1451m]]></name>
    <desc><![CDATA[Depart-Barege-1451m]]></desc>
    <cmt><![CDATA[Depart-Barege-1451m]]></cmt>
  </wpt>
  <wpt lat="42.86985" lon="0.11579">
    <ele>2112</ele>
    <name><![CDATA[Lac Blanc]]></name>
    <desc><![CDATA[Lac Blanc]]></desc>
    <cmt><![CDATA[Lac Blanc]]></cmt>
  </wpt>
  <wpt lat="42.87344" lon="0.11913">
    <ele>2104</ele>
    <name><![CDATA[Lac de la Jonquere]]></name>
    <desc><![CDATA[Lac de la Jonquere]]></desc>
    <cmt><![CDATA[Lac de la Jonquere]]></cmt>
  </wpt>
  <wpt lat="42.86855" lon="0.12201">
    <ele>2185.9067382812</ele>
    <name><![CDATA[Lac de Tracens]]></name>
    <desc><![CDATA[Lac de Tracens]]></desc>
    <cmt><![CDATA[Lac de Tracens]]></cmt>
  </wpt>
  <wpt lat="42.87629" lon="0.11525">
    <ele>2038</ele>
    <name><![CDATA[Lac Dets Coubous]]></name>
    <desc><![CDATA[Lac Dets Coubous]]></desc>
    <cmt><![CDATA[Lac Dets Coubous]]></cmt>
  </wpt>
  <wpt lat="42.86404" lon="0.12087">
    <ele>2232</ele>
    <name><![CDATA[Lac Nére]]></name>
    <desc><![CDATA[Lac Nére]]></desc>
    <cmt><![CDATA[Lac Nére]]></cmt>
  </wpt>
  <wpt lat="42.86747" lon="0.13404">
    <ele>2523.2</ele>
    <name><![CDATA[Pic-de-Tracens-2551m]]></name>
    <desc><![CDATA[Pic-de-Tracens-2551m]]></desc>
    <cmt><![CDATA[Pic-de-Tracens-2551m]]></cmt>
  </wpt>
  <trk>
    <name><![CDATA[Skirando-au-Pic-de-Tracens-2551m-Mariano-le-23-12-2013]]></name>
    <trkseg>
      <trkpt lat="42.90363" lon="0.10153">
        <ele>1480.08203125</ele>
      </trkpt>
      <trkpt lat="42.90362" lon="0.10153">
        <ele>1480.08203125</ele>
      </trkpt>
      <trkpt lat="42.90329" lon="0.10159">
        <ele>1480.08203125</ele>
      </trkpt>
      <trkpt lat="42.90296" lon="0.10183">
        <ele>1480.08203125</ele>
      </trkpt>
      <trkpt lat="42.90271" lon="0.10279">
        <ele>1480.08203125</ele>
      </trkpt>
      <trkpt lat="42.90197" lon="0.1036">
        <ele>1480.41015625</ele>
      </trkpt>
      <trkpt lat="42.90036" lon="0.10412">
        <ele>1490.2109375</ele>
      </trkpt>
      <trkpt lat="42.89842" lon="0.10446">
        <ele>1520.0078125</ele>
      </trkpt>
      <trkpt lat="42.89834" lon="0.10451">
        <ele>1508.9265136719</ele>
        <time>2013-12-23T09:38:28Z</time>
      </trkpt>
      <trkpt lat="42.89811" lon="0.10479">
        <ele>1510.8491210938</ele>
        <time>2013-12-23T09:39:02Z</time>
      </trkpt>
      <trkpt lat="42.89801" lon="0.10485">
        <ele>1511.810546875</ele>
        <time>2013-12-23T09:39:13Z</time>
      </trkpt>
      <trkpt lat="42.89725" lon="0.10489">
        <ele>1519.0205078125</ele>
        <time>2013-12-23T09:40:35Z</time>
      </trkpt>
      <trkpt lat="42.89669" lon="0.10495">
        <ele>1527.1916503906</ele>
        <time>2013-12-23T09:41:50Z</time>
      </trkpt>
      <trkpt lat="42.89584" lon="0.10469">
        <ele>1536.8046875</ele>
        <time>2013-12-23T09:43:31Z</time>
      </trkpt>
      <trkpt lat="42.89574" lon="0.10464">
        <ele>1537.2854003906</ele>
        <time>2013-12-23T09:43:44Z</time>
      </trkpt>
      <trkpt lat="42.89557" lon="0.10455">
        <ele>1540.1694335938</ele>
        <time>2013-12-23T09:44:06Z</time>
      </trkpt>
      <trkpt lat="42.8954" lon="0.10487">
        <ele>1540.6499023438</ele>
        <time>2013-12-23T09:44:50Z</time>
      </trkpt>
      <trkpt lat="42.89529" lon="0.1053">
        <ele>1542.0920410156</ele>
        <time>2013-12-23T09:46:01Z</time>
      </trkpt>
      <trkpt lat="42.89511" lon="0.10594">
        <ele>1546.41796875</ele>
        <time>2013-12-23T09:46:53Z</time>
      </trkpt>
      <trkpt lat="42.89505" lon="0.10604">
        <ele>1547.3791503906</ele>
        <time>2013-12-23T09:48:59Z</time>
      </trkpt>
      <trkpt lat="42.89495" lon="0.10607">
        <ele>1549.7827148438</ele>
        <time>2013-12-23T09:49:16Z</time>
      </trkpt>
      <trkpt lat="42.89485" lon="0.10612">
        <ele>1551.7053222656</ele>
        <time>2013-12-23T09:49:31Z</time>
      </trkpt>
      <trkpt lat="42.89471" lon="0.10614">
        <ele>1556.51171875</ele>
        <time>2013-12-23T09:49:53Z</time>
      </trkpt>
      <trkpt lat="42.89459" lon="0.10611">
        <ele>1558.4343261719</ele>
        <time>2013-12-23T09:50:11Z</time>
      </trkpt>
      <trkpt lat="42.89447" lon="0.10609">
        <ele>1561.7990722656</ele>
        <time>2013-12-23T09:50:29Z</time>
      </trkpt>
      <trkpt lat="42.89434" lon="0.10608">
        <ele>1565.1638183594</ele>
        <time>2013-12-23T09:50:48Z</time>
      </trkpt>
      <trkpt lat="42.89422" lon="0.10619">
        <ele>1567.5668945312</ele>
        <time>2013-12-23T09:51:10Z</time>
      </trkpt>
      <trkpt lat="42.89414" lon="0.10635">
        <ele>1569.9702148438</ele>
        <time>2013-12-23T09:51:29Z</time>
      </trkpt>
      <trkpt lat="42.89402" lon="0.1065">
        <ele>1575.2573242188</ele>
        <time>2013-12-23T09:51:59Z</time>
      </trkpt>
      <trkpt lat="42.89398" lon="0.10662">
        <ele>1578.6220703125</ele>
        <time>2013-12-23T09:52:14Z</time>
      </trkpt>
      <trkpt lat="42.89393" lon="0.10679">
        <ele>1579.5832519531</ele>
        <time>2013-12-23T09:52:44Z</time>
      </trkpt>
      <trkpt lat="42.89395" lon="0.10691">
        <ele>1580.544921875</ele>
        <time>2013-12-23T09:53:17Z</time>
      </trkpt>
      <trkpt lat="42.89389" lon="0.107">
        <ele>1582.9479980469</ele>
        <time>2013-12-23T09:54:15Z</time>
      </trkpt>
      <trkpt lat="42.89375" lon="0.10685">
        <ele>1585.3513183594</ele>
        <time>2013-12-23T09:55:09Z</time>
      </trkpt>
      <trkpt lat="42.89363" lon="0.10684">
        <ele>1587.2739257812</ele>
        <time>2013-12-23T09:55:25Z</time>
      </trkpt>
      <trkpt lat="42.89338" lon="0.10682">
        <ele>1594.4836425781</ele>
        <time>2013-12-23T09:56:06Z</time>
      </trkpt>
      <trkpt lat="42.89274" lon="0.10682">
        <ele>1605.5390625</ele>
        <time>2013-12-23T09:57:38Z</time>
      </trkpt>
      <trkpt lat="42.89263" lon="0.1068">
        <ele>1608.4228515625</ele>
        <time>2013-12-23T09:57:54Z</time>
      </trkpt>
      <trkpt lat="42.89215" lon="0.10697">
        <ele>1618.0361328125</ele>
        <time>2013-12-23T09:59:07Z</time>
      </trkpt>
      <trkpt lat="42.89204" lon="0.10696">
        <ele>1620.9201660156</ele>
        <time>2013-12-23T09:59:21Z</time>
      </trkpt>
      <trkpt lat="42.8919" lon="0.10699">
        <ele>1624.7653808594</ele>
        <time>2013-12-23T09:59:49Z</time>
      </trkpt>
      <trkpt lat="42.8918" lon="0.10701">
        <ele>1627.1687011719</ele>
        <time>2013-12-23T10:00:06Z</time>
      </trkpt>
      <trkpt lat="42.89171" lon="0.10702">
        <ele>1628.1301269531</ele>
        <time>2013-12-23T10:00:23Z</time>
      </trkpt>
      <trkpt lat="42.89155" lon="0.10704">
        <ele>1631.9753417969</ele>
        <time>2013-12-23T10:00:51Z</time>
      </trkpt>
      <trkpt lat="42.89121" lon="0.10728">
        <ele>1640.626953125</ele>
        <time>2013-12-23T10:01:53Z</time>
      </trkpt>
      <trkpt lat="42.89111" lon="0.10727">
        <ele>1640.626953125</ele>
        <time>2013-12-23T10:02:03Z</time>
      </trkpt>
      <trkpt lat="42.89081" lon="0.10727">
        <ele>1645.9145507812</ele>
        <time>2013-12-23T10:06:30Z</time>
      </trkpt>
      <trkpt lat="42.89079" lon="0.10728">
        <ele>1645.4338378906</ele>
        <time>2013-12-23T10:08:19Z</time>
      </trkpt>
      <trkpt lat="42.8907" lon="0.10731">
        <ele>1645.4338378906</ele>
        <time>2013-12-23T10:08:58Z</time>
      </trkpt>
      <trkpt lat="42.89059" lon="0.10743">
        <ele>1645.9145507812</ele>
        <time>2013-12-23T10:09:13Z</time>
      </trkpt>
      <trkpt lat="42.89009" lon="0.10749">
        <ele>1652.1628417969</ele>
        <time>2013-12-23T10:09:57Z</time>
      </trkpt>
      <trkpt lat="42.88936" lon="0.10742">
        <ele>1658.8920898438</ele>
        <time>2013-12-23T10:11:13Z</time>
      </trkpt>
      <trkpt lat="42.88912" lon="0.10768">
        <ele>1661.7763671875</ele>
        <time>2013-12-23T10:12:05Z</time>
      </trkpt>
      <trkpt lat="42.88828" lon="0.10818">
        <ele>1670.4279785156</ele>
        <time>2013-12-23T10:13:36Z</time>
      </trkpt>
      <trkpt lat="42.88707" lon="0.10837">
        <ele>1685.8090820312</ele>
        <time>2013-12-23T10:16:04Z</time>
      </trkpt>
      <trkpt lat="42.88687" lon="0.1086">
        <ele>1693.98046875</ele>
        <time>2013-12-23T10:17:13Z</time>
      </trkpt>
      <trkpt lat="42.88633" lon="0.10863">
        <ele>1701.6708984375</ele>
        <time>2013-12-23T10:18:13Z</time>
      </trkpt>
      <trkpt lat="42.88567" lon="0.10923">
        <ele>1717.0520019531</ele>
        <time>2013-12-23T10:20:11Z</time>
      </trkpt>
      <trkpt lat="42.88561" lon="0.10936">
        <ele>1718.4938964844</ele>
        <time>2013-12-23T10:21:52Z</time>
      </trkpt>
      <trkpt lat="42.88492" lon="0.11006">
        <ele>1730.0297851562</ele>
        <time>2013-12-23T10:24:14Z</time>
      </trkpt>
      <trkpt lat="42.88471" lon="0.11023">
        <ele>1732.4331054688</ele>
        <time>2013-12-23T10:24:40Z</time>
      </trkpt>
      <trkpt lat="42.88456" lon="0.11044">
        <ele>1734.3557128906</ele>
        <time>2013-12-23T10:25:00Z</time>
      </trkpt>
      <trkpt lat="42.88397" lon="0.11125">
        <ele>1737.2395019531</ele>
        <time>2013-12-23T10:26:23Z</time>
      </trkpt>
      <trkpt lat="42.88395" lon="0.11139">
        <ele>1738.2009277344</ele>
        <time>2013-12-23T10:26:32Z</time>
      </trkpt>
      <trkpt lat="42.88386" lon="0.11152">
        <ele>1738.2009277344</ele>
        <time>2013-12-23T10:26:47Z</time>
      </trkpt>
      <trkpt lat="42.8838" lon="0.11162">
        <ele>1739.162109375</ele>
        <time>2013-12-23T10:26:59Z</time>
      </trkpt>
      <trkpt lat="42.88331" lon="0.11182">
        <ele>1747.3334960938</ele>
        <time>2013-12-23T10:27:56Z</time>
      </trkpt>
      <trkpt lat="42.8832" lon="0.11192">
        <ele>1749.2561035156</ele>
        <time>2013-12-23T10:28:13Z</time>
      </trkpt>
      <trkpt lat="42.88302" lon="0.11207">
        <ele>1751.1787109375</ele>
        <time>2013-12-23T10:28:42Z</time>
      </trkpt>
      <trkpt lat="42.8827" lon="0.11215">
        <ele>1755.9851074219</ele>
        <time>2013-12-23T10:29:59Z</time>
      </trkpt>
      <trkpt lat="42.88248" lon="0.11224">
        <ele>1759.8305664062</ele>
        <time>2013-12-23T10:30:25Z</time>
      </trkpt>
      <trkpt lat="42.88236" lon="0.11231">
        <ele>1761.2727050781</ele>
        <time>2013-12-23T10:30:41Z</time>
      </trkpt>
      <trkpt lat="42.8822" lon="0.11235">
        <ele>1767.0405273438</ele>
        <time>2013-12-23T10:31:06Z</time>
      </trkpt>
      <trkpt lat="42.88182" lon="0.112">
        <ele>1774.2504882812</ele>
        <time>2013-12-23T10:32:25Z</time>
      </trkpt>
      <trkpt lat="42.8818" lon="0.11184">
        <ele>1777.1345214844</ele>
        <time>2013-12-23T10:33:26Z</time>
      </trkpt>
      <trkpt lat="42.88176" lon="0.11171">
        <ele>1778.5764160156</ele>
        <time>2013-12-23T10:34:02Z</time>
      </trkpt>
      <trkpt lat="42.88185" lon="0.11134">
        <ele>1785.3054199219</ele>
        <time>2013-12-23T10:35:05Z</time>
      </trkpt>
      <trkpt lat="42.88188" lon="0.11113">
        <ele>1789.1508789062</ele>
        <time>2013-12-23T10:35:34Z</time>
      </trkpt>
      <trkpt lat="42.88186" lon="0.11105">
        <ele>1792.99609375</ele>
        <time>2013-12-23T10:37:03Z</time>
      </trkpt>
      <trkpt lat="42.8818" lon="0.11117">
        <ele>1795.3994140625</ele>
        <time>2013-12-23T10:39:12Z</time>
      </trkpt>
      <trkpt lat="42.88169" lon="0.1112">
        <ele>1800.6865234375</ele>
        <time>2013-12-23T10:39:42Z</time>
      </trkpt>
      <trkpt lat="42.8816" lon="0.11123">
        <ele>1802.6091308594</ele>
        <time>2013-12-23T10:40:00Z</time>
      </trkpt>
      <trkpt lat="42.88157" lon="0.11123">
        <ele>1804.0515136719</ele>
        <time>2013-12-23T10:45:53Z</time>
      </trkpt>
      <trkpt lat="42.88159" lon="0.11107">
        <ele>1805.9738769531</ele>
        <time>2013-12-23T10:46:08Z</time>
      </trkpt>
      <trkpt lat="42.88158" lon="0.11066">
        <ele>1811.7419433594</ele>
        <time>2013-12-23T10:46:58Z</time>
      </trkpt>
      <trkpt lat="42.88152" lon="0.1108">
        <ele>1814.1450195312</ele>
        <time>2013-12-23T10:47:28Z</time>
      </trkpt>
      <trkpt lat="42.88147" lon="0.11068">
        <ele>1819.4323730469</ele>
        <time>2013-12-23T10:47:59Z</time>
      </trkpt>
      <trkpt lat="42.88141" lon="0.11072">
        <ele>1823.7583007812</ele>
        <time>2013-12-23T10:48:36Z</time>
      </trkpt>
      <trkpt lat="42.88133" lon="0.11082">
        <ele>1824.7197265625</ele>
        <time>2013-12-23T10:48:56Z</time>
      </trkpt>
      <trkpt lat="42.88109" lon="0.11113">
        <ele>1832.890625</ele>
        <time>2013-12-23T10:49:51Z</time>
      </trkpt>
      <trkpt lat="42.88099" lon="0.11113">
        <ele>1836.2556152344</ele>
        <time>2013-12-23T10:50:10Z</time>
      </trkpt>
      <trkpt lat="42.88086" lon="0.11122">
        <ele>1838.6589355469</ele>
        <time>2013-12-23T10:50:38Z</time>
      </trkpt>
      <trkpt lat="42.88083" lon="0.11094">
        <ele>1845.8686523438</ele>
        <time>2013-12-23T10:51:48Z</time>
      </trkpt>
      <trkpt lat="42.88058" lon="0.11114">
        <ele>1855.0012207031</ele>
        <time>2013-12-23T10:52:48Z</time>
      </trkpt>
      <trkpt lat="42.88058" lon="0.11093">
        <ele>1857.4045410156</ele>
        <time>2013-12-23T10:53:20Z</time>
      </trkpt>
      <trkpt lat="42.88046" lon="0.11089">
        <ele>1862.6916503906</ele>
        <time>2013-12-23T10:53:58Z</time>
      </trkpt>
      <trkpt lat="42.88033" lon="0.11096">
        <ele>1865.0949707031</ele>
        <time>2013-12-23T10:54:25Z</time>
      </trkpt>
      <trkpt lat="42.88021" lon="0.11108">
        <ele>1869.9016113281</ele>
        <time>2013-12-23T10:54:49Z</time>
      </trkpt>
      <trkpt lat="42.88009" lon="0.1111">
        <ele>1872.7856445312</ele>
        <time>2013-12-23T10:55:09Z</time>
      </trkpt>
      <trkpt lat="42.88003" lon="0.111">
        <ele>1875.6694335938</ele>
        <time>2013-12-23T10:55:30Z</time>
      </trkpt>
      <trkpt lat="42.87996" lon="0.11097">
        <ele>1879.5146484375</ele>
        <time>2013-12-23T10:55:53Z</time>
      </trkpt>
      <trkpt lat="42.87995" lon="0.11128">
        <ele>1884.3215332031</ele>
        <time>2013-12-23T10:56:39Z</time>
      </trkpt>
      <trkpt lat="42.87988" lon="0.11143">
        <ele>1887.6860351562</ele>
        <time>2013-12-23T10:56:57Z</time>
      </trkpt>
      <trkpt lat="42.8798" lon="0.11155">
        <ele>1890.0893554688</ele>
        <time>2013-12-23T10:57:16Z</time>
      </trkpt>
      <trkpt lat="42.8794" lon="0.11149">
        <ele>1900.1833496094</ele>
        <time>2013-12-23T10:58:30Z</time>
      </trkpt>
      <trkpt lat="42.87913" lon="0.11169">
        <ele>1908.3542480469</ele>
        <time>2013-12-23T10:59:25Z</time>
      </trkpt>
      <trkpt lat="42.87902" lon="0.11176">
        <ele>1913.1608886719</ele>
        <time>2013-12-23T10:59:51Z</time>
      </trkpt>
      <trkpt lat="42.87897" lon="0.11188">
        <ele>1915.0834960938</ele>
        <time>2013-12-23T11:00:06Z</time>
      </trkpt>
      <trkpt lat="42.87894" lon="0.11181">
        <ele>1917.4868164062</ele>
        <time>2013-12-23T11:00:41Z</time>
      </trkpt>
      <trkpt lat="42.87887" lon="0.11153">
        <ele>1922.2934570312</ele>
        <time>2013-12-23T11:01:12Z</time>
      </trkpt>
      <trkpt lat="42.87886" lon="0.1112">
        <ele>1929.5031738281</ele>
        <time>2013-12-23T11:01:59Z</time>
      </trkpt>
      <trkpt lat="42.87885" lon="0.11099">
        <ele>1933.8293457031</ele>
        <time>2013-12-23T11:02:33Z</time>
      </trkpt>
      <trkpt lat="42.87878" lon="0.11125">
        <ele>1936.2326660156</ele>
        <time>2013-12-23T11:03:56Z</time>
      </trkpt>
      <trkpt lat="42.8787" lon="0.11131">
        <ele>1939.1164550781</ele>
        <time>2013-12-23T11:04:18Z</time>
      </trkpt>
      <trkpt lat="42.87869" lon="0.11116">
        <ele>1941.5197753906</ele>
        <time>2013-12-23T11:05:01Z</time>
      </trkpt>
      <trkpt lat="42.87856" lon="0.11122">
        <ele>1946.3264160156</ele>
        <time>2013-12-23T11:05:59Z</time>
      </trkpt>
      <trkpt lat="42.87843" lon="0.11137">
        <ele>1950.65234375</ele>
        <time>2013-12-23T11:06:31Z</time>
      </trkpt>
      <trkpt lat="42.87845" lon="0.11106">
        <ele>1957.3815917969</ele>
        <time>2013-12-23T11:07:40Z</time>
      </trkpt>
      <trkpt lat="42.87824" lon="0.11128">
        <ele>1966.9948730469</ele>
        <time>2013-12-23T11:08:45Z</time>
      </trkpt>
      <trkpt lat="42.87821" lon="0.11117">
        <ele>1970.359375</ele>
        <time>2013-12-23T11:09:21Z</time>
      </trkpt>
      <trkpt lat="42.87796" lon="0.11153">
        <ele>1982.3759765625</ele>
        <time>2013-12-23T11:10:43Z</time>
      </trkpt>
      <trkpt lat="42.87791" lon="0.11107">
        <ele>1989.5856933594</ele>
        <time>2013-12-23T11:11:46Z</time>
      </trkpt>
      <trkpt lat="42.87805" lon="0.11039">
        <ele>2004.4860839844</ele>
        <time>2013-12-23T11:14:01Z</time>
      </trkpt>
      <trkpt lat="42.87797" lon="0.11041">
        <ele>2007.8508300781</ele>
        <time>2013-12-23T11:14:43Z</time>
      </trkpt>
      <trkpt lat="42.87797" lon="0.11034">
        <ele>2014.0993652344</ele>
        <time>2013-12-23T11:15:41Z</time>
      </trkpt>
      <trkpt lat="42.87804" lon="0.11012">
        <ele>2017.4638671875</ele>
        <time>2013-12-23T11:16:16Z</time>
      </trkpt>
      <trkpt lat="42.87802" lon="0.10999">
        <ele>2021.7897949219</ele>
        <time>2013-12-23T11:16:42Z</time>
      </trkpt>
      <trkpt lat="42.87791" lon="0.10998">
        <ele>2029.9611816406</ele>
        <time>2013-12-23T11:22:40Z</time>
      </trkpt>
      <trkpt lat="42.87785" lon="0.10983">
        <ele>2028.0385742188</ele>
        <time>2013-12-23T11:24:21Z</time>
      </trkpt>
      <trkpt lat="42.87754" lon="0.11008">
        <ele>2032.8449707031</ele>
        <time>2013-12-23T11:25:10Z</time>
      </trkpt>
      <trkpt lat="42.87749" lon="0.11025">
        <ele>2032.8449707031</ele>
        <time>2013-12-23T11:25:39Z</time>
      </trkpt>
      <trkpt lat="42.87749" lon="0.11037">
        <ele>2036.2097167969</ele>
        <time>2013-12-23T11:25:51Z</time>
      </trkpt>
      <trkpt lat="42.87734" lon="0.1107">
        <ele>2041.9775390625</ele>
        <time>2013-12-23T11:26:43Z</time>
      </trkpt>
      <trkpt lat="42.87725" lon="0.11071">
        <ele>2047.7456054688</ele>
        <time>2013-12-23T11:27:15Z</time>
      </trkpt>
      <trkpt lat="42.87713" lon="0.11077">
        <ele>2051.5908203125</ele>
        <time>2013-12-23T11:27:50Z</time>
      </trkpt>
      <trkpt lat="42.87705" lon="0.1109">
        <ele>2052.0712890625</ele>
        <time>2013-12-23T11:28:07Z</time>
      </trkpt>
      <trkpt lat="42.87701" lon="0.11112">
        <ele>2062.1652832031</ele>
        <time>2013-12-23T11:28:42Z</time>
      </trkpt>
      <trkpt lat="42.87681" lon="0.11149">
        <ele>2065.0493164062</ele>
        <time>2013-12-23T11:29:37Z</time>
      </trkpt>
      <trkpt lat="42.87673" lon="0.11162">
        <ele>2064.087890625</ele>
        <time>2013-12-23T11:31:23Z</time>
      </trkpt>
      <trkpt lat="42.87638" lon="0.11189">
        <ele>2060.7233886719</ele>
        <time>2013-12-23T11:32:53Z</time>
      </trkpt>
      <trkpt lat="42.87628" lon="0.11188">
        <ele>2057.8393554688</ele>
        <time>2013-12-23T11:33:03Z</time>
      </trkpt>
      <trkpt lat="42.87606" lon="0.11252">
        <ele>2052.5520019531</ele>
        <time>2013-12-23T11:34:31Z</time>
      </trkpt>
      <trkpt lat="42.87579" lon="0.11286">
        <ele>2053.5134277344</ele>
        <time>2013-12-23T11:35:25Z</time>
      </trkpt>
      <trkpt lat="42.87481" lon="0.1136">
        <ele>2070.8171386719</ele>
        <time>2013-12-23T11:38:12Z</time>
      </trkpt>
      <trkpt lat="42.87434" lon="0.1142">
        <ele>2072.2590332031</ele>
        <time>2013-12-23T11:39:43Z</time>
      </trkpt>
      <trkpt lat="42.87425" lon="0.11424">
        <ele>2072.2590332031</ele>
        <time>2013-12-23T11:40:00Z</time>
      </trkpt>
      <trkpt lat="42.87397" lon="0.11435">
        <ele>2072.7397460938</ele>
        <time>2013-12-23T11:40:28Z</time>
      </trkpt>
      <trkpt lat="42.87372" lon="0.11441">
        <ele>2074.181640625</ele>
        <time>2013-12-23T11:41:04Z</time>
      </trkpt>
      <trkpt lat="42.87351" lon="0.11472">
        <ele>2073.7009277344</ele>
        <time>2013-12-23T11:41:43Z</time>
      </trkpt>
      <trkpt lat="42.87337" lon="0.11482">
        <ele>2073.2204589844</ele>
        <time>2013-12-23T11:41:58Z</time>
      </trkpt>
      <trkpt lat="42.87274" lon="0.11479">
        <ele>2084.2756347656</ele>
        <time>2013-12-23T11:47:11Z</time>
      </trkpt>
      <trkpt lat="42.87264" lon="0.1148">
        <ele>2086.1982421875</ele>
        <time>2013-12-23T11:47:28Z</time>
      </trkpt>
      <trkpt lat="42.87258" lon="0.1149">
        <ele>2088.6015625</ele>
        <time>2013-12-23T11:48:01Z</time>
      </trkpt>
      <trkpt lat="42.87262" lon="0.11501">
        <ele>2090.5239257812</ele>
        <time>2013-12-23T11:48:44Z</time>
      </trkpt>
      <trkpt lat="42.87272" lon="0.11563">
        <ele>2095.3308105469</ele>
        <time>2013-12-23T11:49:49Z</time>
      </trkpt>
      <trkpt lat="42.87251" lon="0.11569">
        <ele>2101.5793457031</ele>
        <time>2013-12-23T11:50:26Z</time>
      </trkpt>
      <trkpt lat="42.87249" lon="0.11578">
        <ele>2106.3857421875</ele>
        <time>2013-12-23T11:51:00Z</time>
      </trkpt>
      <trkpt lat="42.87261" lon="0.11606">
        <ele>2111.6733398438</ele>
        <time>2013-12-23T11:51:38Z</time>
      </trkpt>
      <trkpt lat="42.87263" lon="0.1162">
        <ele>2114.5571289062</ele>
        <time>2013-12-23T11:51:56Z</time>
      </trkpt>
      <trkpt lat="42.87185" lon="0.11679">
        <ele>2122.2475585938</ele>
        <time>2013-12-23T11:53:50Z</time>
      </trkpt>
      <trkpt lat="42.87137" lon="0.11701">
        <ele>2123.208984375</ele>
        <time>2013-12-23T11:55:17Z</time>
      </trkpt>
      <trkpt lat="42.87129" lon="0.1172">
        <ele>2123.208984375</ele>
        <time>2013-12-23T11:55:45Z</time>
      </trkpt>
      <trkpt lat="42.8712" lon="0.11801">
        <ele>2121.2861328125</ele>
        <time>2013-12-23T11:56:41Z</time>
      </trkpt>
      <trkpt lat="42.87099" lon="0.11856">
        <ele>2128.015625</ele>
        <time>2013-12-23T11:58:29Z</time>
      </trkpt>
      <trkpt lat="42.87101" lon="0.1197">
        <ele>2143.8774414062</ele>
        <time>2013-12-23T12:01:25Z</time>
      </trkpt>
      <trkpt lat="42.87106" lon="0.11981">
        <ele>2149.6452636719</ele>
        <time>2013-12-23T12:01:53Z</time>
      </trkpt>
      <trkpt lat="42.87105" lon="0.12038">
        <ele>2158.2971191406</ele>
        <time>2013-12-23T12:03:15Z</time>
      </trkpt>
      <trkpt lat="42.87071" lon="0.12017">
        <ele>2169.8327636719</ele>
        <time>2013-12-23T12:04:36Z</time>
      </trkpt>
      <trkpt lat="42.87062" lon="0.12037">
        <ele>2178.0041503906</ele>
        <time>2013-12-23T12:06:31Z</time>
      </trkpt>
      <trkpt lat="42.87065" lon="0.12052">
        <ele>2180.4074707031</ele>
        <time>2013-12-23T12:06:57Z</time>
      </trkpt>
      <trkpt lat="42.8708" lon="0.1209">
        <ele>2186.1752929688</ele>
        <time>2013-12-23T12:07:56Z</time>
      </trkpt>
      <trkpt lat="42.87074" lon="0.1211">
        <ele>2192.4240722656</ele>
        <time>2013-12-23T12:08:40Z</time>
      </trkpt>
      <trkpt lat="42.87064" lon="0.12115">
        <ele>2193.3852539062</ele>
        <time>2013-12-23T12:08:57Z</time>
      </trkpt>
      <trkpt lat="42.87057" lon="0.12134">
        <ele>2199.1530761719</ele>
        <time>2013-12-23T12:09:30Z</time>
      </trkpt>
      <trkpt lat="42.87054" lon="0.12162">
        <ele>2201.5563964844</ele>
        <time>2013-12-23T12:10:00Z</time>
      </trkpt>
      <trkpt lat="42.87046" lon="0.12182">
        <ele>2203.9597167969</ele>
        <time>2013-12-23T12:10:20Z</time>
      </trkpt>
      <trkpt lat="42.87031" lon="0.12253">
        <ele>2212.6115722656</ele>
        <time>2013-12-23T12:11:58Z</time>
      </trkpt>
      <trkpt lat="42.87026" lon="0.12266">
        <ele>2214.5341796875</ele>
        <time>2013-12-23T12:12:40Z</time>
      </trkpt>
      <trkpt lat="42.87036" lon="0.12269">
        <ele>2215.0148925781</ele>
        <time>2013-12-23T12:13:17Z</time>
      </trkpt>
      <trkpt lat="42.87054" lon="0.12293">
        <ele>2202.9982910156</ele>
        <time>2013-12-23T12:15:15Z</time>
      </trkpt>
      <trkpt lat="42.87059" lon="0.12304">
        <ele>2205.4018554688</ele>
        <time>2013-12-23T12:15:50Z</time>
      </trkpt>
      <trkpt lat="42.87076" lon="0.12338">
        <ele>2207.3244628906</ele>
        <time>2013-12-23T12:16:23Z</time>
      </trkpt>
      <trkpt lat="42.87071" lon="0.12351">
        <ele>2214.5341796875</ele>
        <time>2013-12-23T12:16:45Z</time>
      </trkpt>
      <trkpt lat="42.87093" lon="0.12354">
        <ele>2216.4567871094</ele>
        <time>2013-12-23T12:17:23Z</time>
      </trkpt>
      <trkpt lat="42.87105" lon="0.12342">
        <ele>2216.9375</ele>
        <time>2013-12-23T12:17:52Z</time>
      </trkpt>
      <trkpt lat="42.87117" lon="0.12347">
        <ele>2218.3793945312</ele>
        <time>2013-12-23T12:18:04Z</time>
      </trkpt>
      <trkpt lat="42.87112" lon="0.12364">
        <ele>2224.1474609375</ele>
        <time>2013-12-23T12:18:40Z</time>
      </trkpt>
      <trkpt lat="42.87129" lon="0.12368">
        <ele>2225.1086425781</ele>
        <time>2013-12-23T12:19:30Z</time>
      </trkpt>
      <trkpt lat="42.87116" lon="0.12393">
        <ele>2231.837890625</ele>
        <time>2013-12-23T12:20:11Z</time>
      </trkpt>
      <trkpt lat="42.87127" lon="0.12391">
        <ele>2233.2797851562</ele>
        <time>2013-12-23T12:20:34Z</time>
      </trkpt>
      <trkpt lat="42.87104" lon="0.12425">
        <ele>2242.8930664062</ele>
        <time>2013-12-23T12:21:32Z</time>
      </trkpt>
      <trkpt lat="42.87104" lon="0.12463">
        <ele>2252.9870605469</ele>
        <time>2013-12-23T12:22:42Z</time>
      </trkpt>
      <trkpt lat="42.87113" lon="0.12466">
        <ele>2254.9096679688</ele>
        <time>2013-12-23T12:23:11Z</time>
      </trkpt>
      <trkpt lat="42.87105" lon="0.125">
        <ele>2258.7548828125</ele>
        <time>2013-12-23T12:24:00Z</time>
      </trkpt>
      <trkpt lat="42.87103" lon="0.12512">
        <ele>2261.158203125</ele>
        <time>2013-12-23T12:24:16Z</time>
      </trkpt>
      <trkpt lat="42.87105" lon="0.12514">
        <ele>2264.0419921875</ele>
        <time>2013-12-23T12:25:42Z</time>
      </trkpt>
      <trkpt lat="42.8711" lon="0.12521">
        <ele>2265.4841308594</ele>
        <time>2013-12-23T12:27:58Z</time>
      </trkpt>
      <trkpt lat="42.87133" lon="0.1252">
        <ele>2270.771484375</ele>
        <time>2013-12-23T12:28:37Z</time>
      </trkpt>
      <trkpt lat="42.87137" lon="0.12533">
        <ele>2272.2133789062</ele>
        <time>2013-12-23T12:28:53Z</time>
      </trkpt>
      <trkpt lat="42.87131" lon="0.12568">
        <ele>2281.345703125</ele>
        <time>2013-12-23T12:29:34Z</time>
      </trkpt>
      <trkpt lat="42.87183" lon="0.12536">
        <ele>2290.4782714844</ele>
        <time>2013-12-23T12:31:07Z</time>
      </trkpt>
      <trkpt lat="42.87185" lon="0.12551">
        <ele>2295.2849121094</ele>
        <time>2013-12-23T12:31:35Z</time>
      </trkpt>
      <trkpt lat="42.87189" lon="0.12561">
        <ele>2300.091796875</ele>
        <time>2013-12-23T12:32:13Z</time>
      </trkpt>
      <trkpt lat="42.87221" lon="0.12571">
        <ele>2303.4562988281</ele>
        <time>2013-12-23T12:32:58Z</time>
      </trkpt>
      <trkpt lat="42.8723" lon="0.12576">
        <ele>2307.7822265625</ele>
        <time>2013-12-23T12:33:31Z</time>
      </trkpt>
      <trkpt lat="42.87204" lon="0.12648">
        <ele>2322.6826171875</ele>
        <time>2013-12-23T12:35:59Z</time>
      </trkpt>
      <trkpt lat="42.87219" lon="0.12646">
        <ele>2327.9697265625</ele>
        <time>2013-12-23T12:36:42Z</time>
      </trkpt>
      <trkpt lat="42.87219" lon="0.12662">
        <ele>2332.7763671875</ele>
        <time>2013-12-23T12:37:22Z</time>
      </trkpt>
      <trkpt lat="42.87211" lon="0.12678">
        <ele>2336.1411132812</ele>
        <time>2013-12-23T12:37:59Z</time>
      </trkpt>
      <trkpt lat="42.8721" lon="0.1268">
        <ele>2337.5830078125</ele>
        <time>2013-12-23T12:38:29Z</time>
      </trkpt>
      <trkpt lat="42.87219" lon="0.12686">
        <ele>2339.5056152344</ele>
        <time>2013-12-23T12:38:48Z</time>
      </trkpt>
      <trkpt lat="42.87219" lon="0.12693">
        <ele>2343.3508300781</ele>
        <time>2013-12-23T12:39:18Z</time>
      </trkpt>
      <trkpt lat="42.87197" lon="0.12712">
        <ele>2352.0026855469</ele>
        <time>2013-12-23T12:40:07Z</time>
      </trkpt>
      <trkpt lat="42.87188" lon="0.12724">
        <ele>2353.4448242188</ele>
        <time>2013-12-23T12:40:30Z</time>
      </trkpt>
      <trkpt lat="42.87196" lon="0.1273">
        <ele>2355.8479003906</ele>
        <time>2013-12-23T12:41:03Z</time>
      </trkpt>
      <trkpt lat="42.87202" lon="0.1274">
        <ele>2358.2512207031</ele>
        <time>2013-12-23T12:41:20Z</time>
      </trkpt>
      <trkpt lat="42.87197" lon="0.12752">
        <ele>2361.6159667969</ele>
        <time>2013-12-23T12:41:39Z</time>
      </trkpt>
      <trkpt lat="42.87195" lon="0.12772">
        <ele>2368.8259277344</ele>
        <time>2013-12-23T12:42:05Z</time>
      </trkpt>
      <trkpt lat="42.87203" lon="0.12783">
        <ele>2368.8259277344</ele>
        <time>2013-12-23T12:42:44Z</time>
      </trkpt>
      <trkpt lat="42.87188" lon="0.1279">
        <ele>2376.0356445312</ele>
        <time>2013-12-23T12:43:50Z</time>
      </trkpt>
      <trkpt lat="42.87191" lon="0.12816">
        <ele>2381.3229980469</ele>
        <time>2013-12-23T12:44:41Z</time>
      </trkpt>
      <trkpt lat="42.87173" lon="0.1282">
        <ele>2384.6877441406</ele>
        <time>2013-12-23T12:45:13Z</time>
      </trkpt>
      <trkpt lat="42.87176" lon="0.12831">
        <ele>2388.0522460938</ele>
        <time>2013-12-23T12:45:32Z</time>
      </trkpt>
      <trkpt lat="42.87181" lon="0.12848">
        <ele>2391.4167480469</ele>
        <time>2013-12-23T12:46:03Z</time>
      </trkpt>
      <trkpt lat="42.87162" lon="0.12856">
        <ele>2396.2236328125</ele>
        <time>2013-12-23T12:46:44Z</time>
      </trkpt>
      <trkpt lat="42.87171" lon="0.12879">
        <ele>2401.9912109375</ele>
        <time>2013-12-23T12:47:54Z</time>
      </trkpt>
      <trkpt lat="42.87153" lon="0.1289">
        <ele>2409.201171875</ele>
        <time>2013-12-23T12:49:01Z</time>
      </trkpt>
      <trkpt lat="42.87154" lon="0.12904">
        <ele>2411.6044921875</ele>
        <time>2013-12-23T12:49:21Z</time>
      </trkpt>
      <trkpt lat="42.87141" lon="0.12905">
        <ele>2412.0852050781</ele>
        <time>2013-12-23T12:49:52Z</time>
      </trkpt>
      <trkpt lat="42.87132" lon="0.12905">
        <ele>2415.9304199219</ele>
        <time>2013-12-23T12:50:05Z</time>
      </trkpt>
      <trkpt lat="42.87118" lon="0.12942">
        <ele>2425.5434570312</ele>
        <time>2013-12-23T12:51:07Z</time>
      </trkpt>
      <trkpt lat="42.87114" lon="0.12979">
        <ele>2432.7534179688</ele>
        <time>2013-12-23T12:52:07Z</time>
      </trkpt>
      <trkpt lat="42.87106" lon="0.12986">
        <ele>2435.6374511719</ele>
        <time>2013-12-23T12:52:28Z</time>
      </trkpt>
      <trkpt lat="42.87109" lon="0.13021">
        <ele>2441.4052734375</ele>
        <time>2013-12-23T12:53:08Z</time>
      </trkpt>
      <trkpt lat="42.87102" lon="0.13036">
        <ele>2443.3278808594</ele>
        <time>2013-12-23T12:53:29Z</time>
      </trkpt>
      <trkpt lat="42.87056" lon="0.13094">
        <ele>2456.3056640625</ele>
        <time>2013-12-23T12:55:11Z</time>
      </trkpt>
      <trkpt lat="42.87046" lon="0.13108">
        <ele>2459.1896972656</ele>
        <time>2013-12-23T12:55:30Z</time>
      </trkpt>
      <trkpt lat="42.87018" lon="0.13143">
        <ele>2463.515625</ele>
        <time>2013-12-23T12:56:23Z</time>
      </trkpt>
      <trkpt lat="42.86974" lon="0.13185">
        <ele>2470.7255859375</ele>
        <time>2013-12-23T12:57:44Z</time>
      </trkpt>
      <trkpt lat="42.86955" lon="0.132">
        <ele>2476.9743652344</ele>
        <time>2013-12-23T12:58:19Z</time>
      </trkpt>
      <trkpt lat="42.86946" lon="0.13208">
        <ele>2476.0129394531</ele>
        <time>2013-12-23T12:58:38Z</time>
      </trkpt>
      <trkpt lat="42.86892" lon="0.13281">
        <ele>2499.0844726562</ele>
        <time>2013-12-23T13:01:05Z</time>
      </trkpt>
      <trkpt lat="42.86885" lon="0.1329">
        <ele>2498.6037597656</ele>
        <time>2013-12-23T13:01:16Z</time>
      </trkpt>
      <trkpt lat="42.86876" lon="0.13296">
        <ele>2498.123046875</ele>
        <time>2013-12-23T13:01:29Z</time>
      </trkpt>
      <trkpt lat="42.86866" lon="0.13299">
        <ele>2495.2392578125</ele>
        <time>2013-12-23T13:01:56Z</time>
      </trkpt>
      <trkpt lat="42.8684" lon="0.13321">
        <ele>2501.4877929688</ele>
        <time>2013-12-23T13:02:45Z</time>
      </trkpt>
      <trkpt lat="42.86822" lon="0.13339">
        <ele>2511.5817871094</ele>
        <time>2013-12-23T13:03:39Z</time>
      </trkpt>
      <trkpt lat="42.86822" lon="0.13356">
        <ele>2514.4655761719</ele>
        <time>2013-12-23T13:04:21Z</time>
      </trkpt>
      <trkpt lat="42.86807" lon="0.13345">
        <ele>2521.1945800781</ele>
        <time>2013-12-23T13:05:11Z</time>
      </trkpt>
      <trkpt lat="42.86808" lon="0.13364">
        <ele>2521.1945800781</ele>
        <time>2013-12-23T13:05:37Z</time>
      </trkpt>
      <trkpt lat="42.86791" lon="0.13358">
        <ele>2523.5979003906</ele>
        <time>2013-12-23T13:06:33Z</time>
      </trkpt>
      <trkpt lat="42.86782" lon="0.13345">
        <ele>2528.4047851562</ele>
        <time>2013-12-23T13:07:01Z</time>
      </trkpt>
      <trkpt lat="42.86771" lon="0.13362">
        <ele>2533.2111816406</ele>
        <time>2013-12-23T13:07:50Z</time>
      </trkpt>
      <trkpt lat="42.86762" lon="0.13353">
        <ele>2538.0178222656</ele>
        <time>2013-12-23T13:08:13Z</time>
      </trkpt>
      <trkpt lat="42.8674" lon="0.13372">
        <ele>2542.3439941406</ele>
        <time>2013-12-23T13:09:30Z</time>
      </trkpt>
      <trkpt lat="42.86744" lon="0.13406">
        <ele>2547.6311035156</ele>
        <time>2013-12-23T13:12:56Z</time>
      </trkpt>
      <trkpt lat="42.86744" lon="0.13407">
        <ele>2548.1115722656</ele>
        <time>2013-12-23T13:13:42Z</time>
      </trkpt>
      <trkpt lat="42.86744" lon="0.13406">
        <ele>2549.5537109375</ele>
        <time>2013-12-23T13:25:43Z</time>
      </trkpt>
      <trkpt lat="42.86741" lon="0.13374">
        <ele>2538.0178222656</ele>
        <time>2013-12-23T13:43:32Z</time>
      </trkpt>
      <trkpt lat="42.86757" lon="0.13357">
        <ele>2529.8466796875</ele>
        <time>2013-12-23T13:48:26Z</time>
      </trkpt>
      <trkpt lat="42.86766" lon="0.13363">
        <ele>2529.3659667969</ele>
        <time>2013-12-23T13:48:32Z</time>
      </trkpt>
      <trkpt lat="42.86775" lon="0.13342">
        <ele>2526.962890625</ele>
        <time>2013-12-23T13:48:41Z</time>
      </trkpt>
      <trkpt lat="42.86781" lon="0.13352">
        <ele>2521.6752929688</ele>
        <time>2013-12-23T13:48:45Z</time>
      </trkpt>
      <trkpt lat="42.86828" lon="0.13301">
        <ele>2509.1784667969</ele>
        <time>2013-12-23T13:49:09Z</time>
      </trkpt>
      <trkpt lat="42.86866" lon="0.13268">
        <ele>2500.5263671875</ele>
        <time>2013-12-23T13:49:38Z</time>
      </trkpt>
      <trkpt lat="42.86882" lon="0.13254">
        <ele>2497.1618652344</ele>
        <time>2013-12-23T13:49:48Z</time>
      </trkpt>
      <trkpt lat="42.86893" lon="0.13244">
        <ele>2492.8359375</ele>
        <time>2013-12-23T13:49:53Z</time>
      </trkpt>
      <trkpt lat="42.86907" lon="0.13225">
        <ele>2491.8745117188</ele>
        <time>2013-12-23T13:50:06Z</time>
      </trkpt>
      <trkpt lat="42.86931" lon="0.13193">
        <ele>2483.7033691406</ele>
        <time>2013-12-23T13:52:12Z</time>
      </trkpt>
      <trkpt lat="42.86959" lon="0.13172">
        <ele>2473.12890625</ele>
        <time>2013-12-23T13:52:22Z</time>
      </trkpt>
      <trkpt lat="42.8702" lon="0.13126">
        <ele>2460.1511230469</ele>
        <time>2013-12-23T13:52:38Z</time>
      </trkpt>
      <trkpt lat="42.87035" lon="0.13115">
        <ele>2456.7863769531</ele>
        <time>2013-12-23T13:52:42Z</time>
      </trkpt>
      <trkpt lat="42.87053" lon="0.13098">
        <ele>2453.421875</ele>
        <time>2013-12-23T13:52:52Z</time>
      </trkpt>
      <trkpt lat="42.87072" lon="0.13039">
        <ele>2446.2121582031</ele>
        <time>2013-12-23T13:53:27Z</time>
      </trkpt>
      <trkpt lat="42.87074" lon="0.13011">
        <ele>2443.3278808594</ele>
        <time>2013-12-23T13:53:34Z</time>
      </trkpt>
      <trkpt lat="42.87088" lon="0.12981">
        <ele>2436.5986328125</ele>
        <time>2013-12-23T13:53:45Z</time>
      </trkpt>
      <trkpt lat="42.87081" lon="0.12973">
        <ele>2434.6762695312</ele>
        <time>2013-12-23T13:54:05Z</time>
      </trkpt>
      <trkpt lat="42.87086" lon="0.12934">
        <ele>2427.9467773438</ele>
        <time>2013-12-23T13:55:23Z</time>
      </trkpt>
      <trkpt lat="42.87109" lon="0.12891">
        <ele>2419.2951660156</ele>
        <time>2013-12-23T13:55:35Z</time>
      </trkpt>
      <trkpt lat="42.87125" lon="0.12896">
        <ele>2415.4499511719</ele>
        <time>2013-12-23T13:56:03Z</time>
      </trkpt>
      <trkpt lat="42.87135" lon="0.12902">
        <ele>2417.3723144531</ele>
        <time>2013-12-23T13:56:07Z</time>
      </trkpt>
      <trkpt lat="42.87172" lon="0.12893">
        <ele>2405.8364257812</ele>
        <time>2013-12-23T13:56:22Z</time>
      </trkpt>
      <trkpt lat="42.87166" lon="0.12872">
        <ele>2403.4333496094</ele>
        <time>2013-12-23T13:56:27Z</time>
      </trkpt>
      <trkpt lat="42.87158" lon="0.12846">
        <ele>2399.5881347656</ele>
        <time>2013-12-23T13:56:35Z</time>
      </trkpt>
      <trkpt lat="42.87172" lon="0.12849">
        <ele>2397.6655273438</ele>
        <time>2013-12-23T13:57:01Z</time>
      </trkpt>
      <trkpt lat="42.87173" lon="0.12835">
        <ele>2395.2619628906</ele>
        <time>2013-12-23T13:57:16Z</time>
      </trkpt>
      <trkpt lat="42.8719" lon="0.12813">
        <ele>2383.7263183594</ele>
        <time>2013-12-23T13:57:25Z</time>
      </trkpt>
      <trkpt lat="42.87194" lon="0.12786">
        <ele>2374.59375</ele>
        <time>2013-12-23T13:57:36Z</time>
      </trkpt>
      <trkpt lat="42.87186" lon="0.12778">
        <ele>2374.59375</ele>
        <time>2013-12-23T13:57:46Z</time>
      </trkpt>
      <trkpt lat="42.87209" lon="0.12761">
        <ele>2367.3837890625</ele>
        <time>2013-12-23T13:57:52Z</time>
      </trkpt>
      <trkpt lat="42.87208" lon="0.12753">
        <ele>2363.5383300781</ele>
        <time>2013-12-23T13:58:30Z</time>
      </trkpt>
      <trkpt lat="42.87197" lon="0.12755">
        <ele>2363.0578613281</ele>
        <time>2013-12-23T13:58:34Z</time>
      </trkpt>
      <trkpt lat="42.87193" lon="0.12718">
        <ele>2355.8479003906</ele>
        <time>2013-12-23T13:58:55Z</time>
      </trkpt>
      <trkpt lat="42.87201" lon="0.12712">
        <ele>2352.9641113281</ele>
        <time>2013-12-23T13:59:01Z</time>
      </trkpt>
      <trkpt lat="42.87198" lon="0.12697">
        <ele>2353.4448242188</ele>
        <time>2013-12-23T14:26:33Z</time>
      </trkpt>
      <trkpt lat="42.87221" lon="0.12686">
        <ele>2345.2734375</ele>
        <time>2013-12-23T14:28:59Z</time>
      </trkpt>
      <trkpt lat="42.87212" lon="0.12681">
        <ele>2340.9475097656</ele>
        <time>2013-12-23T14:29:07Z</time>
      </trkpt>
      <trkpt lat="42.8722" lon="0.12661">
        <ele>2333.7377929688</ele>
        <time>2013-12-23T14:29:29Z</time>
      </trkpt>
      <trkpt lat="42.87228" lon="0.12649">
        <ele>2335.1796875</ele>
        <time>2013-12-23T14:29:33Z</time>
      </trkpt>
      <trkpt lat="42.8723" lon="0.12618">
        <ele>2322.2019042969</ele>
        <time>2013-12-23T14:29:58Z</time>
      </trkpt>
      <trkpt lat="42.87226" lon="0.12612">
        <ele>2317.8759765625</ele>
        <time>2013-12-23T14:30:27Z</time>
      </trkpt>
      <trkpt lat="42.8729" lon="0.12485">
        <ele>2297.2075195312</ele>
        <time>2013-12-23T14:33:31Z</time>
      </trkpt>
      <trkpt lat="42.87276" lon="0.1248">
        <ele>2290.4782714844</ele>
        <time>2013-12-23T14:34:37Z</time>
      </trkpt>
      <trkpt lat="42.87275" lon="0.12477">
        <ele>2288.5559082031</ele>
        <time>2013-12-23T14:36:27Z</time>
      </trkpt>
      <trkpt lat="42.87286" lon="0.12442">
        <ele>2278.4619140625</ele>
        <time>2013-12-23T14:37:03Z</time>
      </trkpt>
      <trkpt lat="42.8731" lon="0.1243">
        <ele>2273.6552734375</ele>
        <time>2013-12-23T14:37:23Z</time>
      </trkpt>
      <trkpt lat="42.87324" lon="0.12398">
        <ele>2266.4453125</ele>
        <time>2013-12-23T14:37:31Z</time>
      </trkpt>
      <trkpt lat="42.87351" lon="0.12363">
        <ele>2256.3515625</ele>
        <time>2013-12-23T14:38:27Z</time>
      </trkpt>
      <trkpt lat="42.87348" lon="0.12358">
        <ele>2250.5834960938</ele>
        <time>2013-12-23T14:39:02Z</time>
      </trkpt>
      <trkpt lat="42.87358" lon="0.12352">
        <ele>2250.5834960938</ele>
        <time>2013-12-23T14:39:19Z</time>
      </trkpt>
      <trkpt lat="42.874" lon="0.12319">
        <ele>2241.451171875</ele>
        <time>2013-12-23T14:39:52Z</time>
      </trkpt>
      <trkpt lat="42.87438" lon="0.12298">
        <ele>2233.2797851562</ele>
        <time>2013-12-23T14:40:34Z</time>
      </trkpt>
      <trkpt lat="42.87457" lon="0.12299">
        <ele>2231.3571777344</ele>
        <time>2013-12-23T14:40:47Z</time>
      </trkpt>
      <trkpt lat="42.87484" lon="0.12294">
        <ele>2225.5893554688</ele>
        <time>2013-12-23T14:41:00Z</time>
      </trkpt>
      <trkpt lat="42.87546" lon="0.12266">
        <ele>2215.4956054688</ele>
        <time>2013-12-23T14:43:34Z</time>
      </trkpt>
      <trkpt lat="42.8757" lon="0.1226">
        <ele>2212.130859375</ele>
        <time>2013-12-23T14:44:16Z</time>
      </trkpt>
      <trkpt lat="42.87561" lon="0.12255">
        <ele>2208.2856445312</ele>
        <time>2013-12-23T14:44:34Z</time>
      </trkpt>
      <trkpt lat="42.87551" lon="0.12253">
        <ele>2207.3244628906</ele>
        <time>2013-12-23T14:44:49Z</time>
      </trkpt>
      <trkpt lat="42.8756" lon="0.12246">
        <ele>2204.4404296875</ele>
        <time>2013-12-23T14:45:15Z</time>
      </trkpt>
      <trkpt lat="42.87558" lon="0.12234">
        <ele>2198.1916503906</ele>
        <time>2013-12-23T14:46:04Z</time>
      </trkpt>
      <trkpt lat="42.87551" lon="0.1223">
        <ele>2196.2692871094</ele>
        <time>2013-12-23T14:48:23Z</time>
      </trkpt>
      <trkpt lat="42.87563" lon="0.12224">
        <ele>2193.3852539062</ele>
        <time>2013-12-23T14:49:39Z</time>
      </trkpt>
      <trkpt lat="42.87567" lon="0.12211">
        <ele>2186.1752929688</ele>
        <time>2013-12-23T14:50:14Z</time>
      </trkpt>
      <trkpt lat="42.87559" lon="0.12192">
        <ele>2175.1201171875</ele>
        <time>2013-12-23T14:53:30Z</time>
      </trkpt>
      <trkpt lat="42.87555" lon="0.12179">
        <ele>2171.2746582031</ele>
        <time>2013-12-23T14:53:57Z</time>
      </trkpt>
      <trkpt lat="42.87556" lon="0.1218">
        <ele>2169.8327636719</ele>
        <time>2013-12-23T15:02:47Z</time>
      </trkpt>
      <trkpt lat="42.87574" lon="0.12163">
        <ele>2163.5842285156</ele>
        <time>2013-12-23T15:03:25Z</time>
      </trkpt>
      <trkpt lat="42.87615" lon="0.12121">
        <ele>2155.8935546875</ele>
        <time>2013-12-23T15:04:43Z</time>
      </trkpt>
      <trkpt lat="42.87594" lon="0.12121">
        <ele>2148.203125</ele>
        <time>2013-12-23T15:06:33Z</time>
      </trkpt>
      <trkpt lat="42.87546" lon="0.12114">
        <ele>2139.5512695312</ele>
        <time>2013-12-23T15:06:47Z</time>
      </trkpt>
      <trkpt lat="42.87513" lon="0.12103">
        <ele>2132.3415527344</ele>
        <time>2013-12-23T15:07:28Z</time>
      </trkpt>
      <trkpt lat="42.87539" lon="0.12089">
        <ele>2127.5349121094</ele>
        <time>2013-12-23T15:08:08Z</time>
      </trkpt>
      <trkpt lat="42.87513" lon="0.12072">
        <ele>2123.208984375</ele>
        <time>2013-12-23T15:08:32Z</time>
      </trkpt>
      <trkpt lat="42.87521" lon="0.12069">
        <ele>2120.3249511719</ele>
        <time>2013-12-23T15:09:18Z</time>
      </trkpt>
      <trkpt lat="42.87557" lon="0.12046">
        <ele>2111.1926269531</ele>
        <time>2013-12-23T15:10:13Z</time>
      </trkpt>
      <trkpt lat="42.87564" lon="0.12035">
        <ele>2106.8664550781</ele>
        <time>2013-12-23T15:10:29Z</time>
      </trkpt>
      <trkpt lat="42.87586" lon="0.12019">
        <ele>2100.6179199219</ele>
        <time>2013-12-23T15:10:48Z</time>
      </trkpt>
      <trkpt lat="42.87605" lon="0.11982">
        <ele>2095.8115234375</ele>
        <time>2013-12-23T15:11:25Z</time>
      </trkpt>
      <trkpt lat="42.87612" lon="0.11937">
        <ele>2087.1594238281</ele>
        <time>2013-12-23T15:12:26Z</time>
      </trkpt>
      <trkpt lat="42.8762" lon="0.1193">
        <ele>2081.8723144531</ele>
        <time>2013-12-23T15:12:35Z</time>
      </trkpt>
      <trkpt lat="42.8762" lon="0.11878">
        <ele>2076.5852050781</ele>
        <time>2013-12-23T15:12:59Z</time>
      </trkpt>
      <trkpt lat="42.87634" lon="0.11882">
        <ele>2076.1044921875</ele>
        <time>2013-12-23T15:13:07Z</time>
      </trkpt>
      <trkpt lat="42.87671" lon="0.11807">
        <ele>2070.8171386719</ele>
        <time>2013-12-23T15:13:53Z</time>
      </trkpt>
      <trkpt lat="42.87671" lon="0.11781">
        <ele>2071.7783203125</ele>
        <time>2013-12-23T15:14:09Z</time>
      </trkpt>
      <trkpt lat="42.8769" lon="0.11721">
        <ele>2071.7783203125</ele>
        <time>2013-12-23T15:14:47Z</time>
      </trkpt>
      <trkpt lat="42.87728" lon="0.11661">
        <ele>2058.8005371094</ele>
        <time>2013-12-23T15:16:17Z</time>
      </trkpt>
      <trkpt lat="42.8775" lon="0.11628">
        <ele>2051.5908203125</ele>
        <time>2013-12-23T15:17:06Z</time>
      </trkpt>
      <trkpt lat="42.87753" lon="0.1161">
        <ele>2051.5908203125</ele>
        <time>2013-12-23T15:17:26Z</time>
      </trkpt>
      <trkpt lat="42.87763" lon="0.11601">
        <ele>2051.1101074219</ele>
        <time>2013-12-23T15:18:01Z</time>
      </trkpt>
      <trkpt lat="42.87756" lon="0.11571">
        <ele>2050.1489257812</ele>
        <time>2013-12-23T15:18:28Z</time>
      </trkpt>
      <trkpt lat="42.87736" lon="0.11468">
        <ele>2051.5908203125</ele>
        <time>2013-12-23T15:19:57Z</time>
      </trkpt>
      <trkpt lat="42.8774" lon="0.11457">
        <ele>2051.5908203125</ele>
        <time>2013-12-23T15:20:09Z</time>
      </trkpt>
      <trkpt lat="42.87758" lon="0.11403">
        <ele>2051.1101074219</ele>
        <time>2013-12-23T15:20:42Z</time>
      </trkpt>
      <trkpt lat="42.87708" lon="0.11289">
        <ele>2050.6293945312</ele>
        <time>2013-12-23T15:26:02Z</time>
      </trkpt>
      <trkpt lat="42.87705" lon="0.11276">
        <ele>2050.6293945312</ele>
        <time>2013-12-23T15:26:18Z</time>
      </trkpt>
      <trkpt lat="42.87704" lon="0.11246">
        <ele>2049.6682128906</ele>
        <time>2013-12-23T15:26:48Z</time>
      </trkpt>
      <trkpt lat="42.87711" lon="0.11236">
        <ele>2047.2648925781</ele>
        <time>2013-12-23T15:26:57Z</time>
      </trkpt>
      <trkpt lat="42.87721" lon="0.11232">
        <ele>2045.3422851562</ele>
        <time>2013-12-23T15:27:44Z</time>
      </trkpt>
      <trkpt lat="42.87738" lon="0.11208">
        <ele>2034.287109375</ele>
        <time>2013-12-23T15:28:22Z</time>
      </trkpt>
      <trkpt lat="42.8775" lon="0.11167">
        <ele>2025.6350097656</ele>
        <time>2013-12-23T15:28:49Z</time>
      </trkpt>
      <trkpt lat="42.87752" lon="0.11174">
        <ele>2027.5576171875</ele>
        <time>2013-12-23T15:29:46Z</time>
      </trkpt>
      <trkpt lat="42.87761" lon="0.11228">
        <ele>2026.1157226562</ele>
        <time>2013-12-23T15:31:17Z</time>
      </trkpt>
      <trkpt lat="42.87771" lon="0.1123">
        <ele>2021.7897949219</ele>
        <time>2013-12-23T15:31:58Z</time>
      </trkpt>
      <trkpt lat="42.87771" lon="0.11223">
        <ele>2016.5026855469</ele>
        <time>2013-12-23T15:32:47Z</time>
      </trkpt>
      <trkpt lat="42.87782" lon="0.11222">
        <ele>2010.25390625</ele>
        <time>2013-12-23T15:33:31Z</time>
      </trkpt>
      <trkpt lat="42.87785" lon="0.1121">
        <ele>2007.3701171875</ele>
        <time>2013-12-23T15:34:37Z</time>
      </trkpt>
      <trkpt lat="42.87815" lon="0.11212">
        <ele>1980.9340820312</ele>
        <time>2013-12-23T15:37:36Z</time>
      </trkpt>
      <trkpt lat="42.87824" lon="0.11209">
        <ele>1974.6853027344</ele>
        <time>2013-12-23T15:38:13Z</time>
      </trkpt>
      <trkpt lat="42.87825" lon="0.11204">
        <ele>1966.9948730469</ele>
        <time>2013-12-23T15:39:26Z</time>
      </trkpt>
      <trkpt lat="42.87826" lon="0.11183">
        <ele>1962.1879882812</ele>
        <time>2013-12-23T15:40:00Z</time>
      </trkpt>
      <trkpt lat="42.87835" lon="0.11151">
        <ele>1955.939453125</ele>
        <time>2013-12-23T15:40:13Z</time>
      </trkpt>
      <trkpt lat="42.87838" lon="0.11139">
        <ele>1954.0170898438</ele>
        <time>2013-12-23T15:40:25Z</time>
      </trkpt>
      <trkpt lat="42.87846" lon="0.11132">
        <ele>1952.5749511719</ele>
        <time>2013-12-23T15:40:30Z</time>
      </trkpt>
      <trkpt lat="42.87854" lon="0.11123">
        <ele>1949.2104492188</ele>
        <time>2013-12-23T15:40:35Z</time>
      </trkpt>
      <trkpt lat="42.87907" lon="0.1107">
        <ele>1932.8679199219</ele>
        <time>2013-12-23T15:41:48Z</time>
      </trkpt>
      <trkpt lat="42.87903" lon="0.11168">
        <ele>1918.4482421875</ele>
        <time>2013-12-23T15:42:50Z</time>
      </trkpt>
      <trkpt lat="42.87909" lon="0.11163">
        <ele>1916.044921875</ele>
        <time>2013-12-23T15:43:04Z</time>
      </trkpt>
      <trkpt lat="42.87919" lon="0.1115">
        <ele>1915.0834960938</ele>
        <time>2013-12-23T15:43:10Z</time>
      </trkpt>
      <trkpt lat="42.87944" lon="0.11117">
        <ele>1909.3156738281</ele>
        <time>2013-12-23T15:43:25Z</time>
      </trkpt>
      <trkpt lat="42.87956" lon="0.11126">
        <ele>1904.5090332031</ele>
        <time>2013-12-23T15:43:31Z</time>
      </trkpt>
      <trkpt lat="42.87956" lon="0.11133">
        <ele>1904.0285644531</ele>
        <time>2013-12-23T15:43:46Z</time>
      </trkpt>
      <trkpt lat="42.87968" lon="0.11131">
        <ele>1901.6252441406</ele>
        <time>2013-12-23T15:44:08Z</time>
      </trkpt>
      <trkpt lat="42.87971" lon="0.11158">
        <ele>1896.337890625</ele>
        <time>2013-12-23T15:44:28Z</time>
      </trkpt>
      <trkpt lat="42.8797" lon="0.11172">
        <ele>1895.8571777344</ele>
        <time>2013-12-23T15:44:37Z</time>
      </trkpt>
      <trkpt lat="42.87976" lon="0.11162">
        <ele>1895.8571777344</ele>
        <time>2013-12-23T15:44:46Z</time>
      </trkpt>
      <trkpt lat="42.87983" lon="0.11142">
        <ele>1892.9731445312</ele>
        <time>2013-12-23T15:45:02Z</time>
      </trkpt>
      <trkpt lat="42.87991" lon="0.11138">
        <ele>1889.1279296875</ele>
        <time>2013-12-23T15:45:11Z</time>
      </trkpt>
      <trkpt lat="42.8799" lon="0.11153">
        <ele>1885.7634277344</ele>
        <time>2013-12-23T15:45:26Z</time>
      </trkpt>
      <trkpt lat="42.87998" lon="0.11151">
        <ele>1883.3598632812</ele>
        <time>2013-12-23T15:45:49Z</time>
      </trkpt>
      <trkpt lat="42.88002" lon="0.11158">
        <ele>1879.0339355469</ele>
        <time>2013-12-23T15:46:06Z</time>
      </trkpt>
      <trkpt lat="42.88011" lon="0.11149">
        <ele>1876.1501464844</ele>
        <time>2013-12-23T15:47:14Z</time>
      </trkpt>
      <trkpt lat="42.88013" lon="0.11167">
        <ele>1872.7856445312</ele>
        <time>2013-12-23T15:47:43Z</time>
      </trkpt>
      <trkpt lat="42.88029" lon="0.11171">
        <ele>1859.8076171875</ele>
        <time>2013-12-23T15:49:15Z</time>
      </trkpt>
      <trkpt lat="42.88053" lon="0.1114">
        <ele>1851.1557617188</ele>
        <time>2013-12-23T15:49:38Z</time>
      </trkpt>
      <trkpt lat="42.88062" lon="0.11133">
        <ele>1849.7138671875</ele>
        <time>2013-12-23T15:49:47Z</time>
      </trkpt>
      <trkpt lat="42.88089" lon="0.1113">
        <ele>1839.6201171875</ele>
        <time>2013-12-23T15:50:22Z</time>
      </trkpt>
      <trkpt lat="42.88099" lon="0.11125">
        <ele>1836.7360839844</ele>
        <time>2013-12-23T15:50:26Z</time>
      </trkpt>
      <trkpt lat="42.88115" lon="0.11122">
        <ele>1833.3713378906</ele>
        <time>2013-12-23T15:50:31Z</time>
      </trkpt>
      <trkpt lat="42.88122" lon="0.11113">
        <ele>1833.3713378906</ele>
        <time>2013-12-23T15:50:41Z</time>
      </trkpt>
      <trkpt lat="42.88137" lon="0.11076">
        <ele>1828.0842285156</ele>
        <time>2013-12-23T15:50:58Z</time>
      </trkpt>
      <trkpt lat="42.88144" lon="0.11077">
        <ele>1824.7197265625</ele>
        <time>2013-12-23T15:51:11Z</time>
      </trkpt>
      <trkpt lat="42.88151" lon="0.11082">
        <ele>1820.8745117188</ele>
        <time>2013-12-23T15:51:47Z</time>
      </trkpt>
      <trkpt lat="42.88152" lon="0.11097">
        <ele>1817.0290527344</ele>
        <time>2013-12-23T15:52:00Z</time>
      </trkpt>
      <trkpt lat="42.88151" lon="0.11114">
        <ele>1815.5871582031</ele>
        <time>2013-12-23T15:52:15Z</time>
      </trkpt>
      <trkpt lat="42.88161" lon="0.11107">
        <ele>1811.2612304688</ele>
        <time>2013-12-23T15:52:25Z</time>
      </trkpt>
      <trkpt lat="42.8816" lon="0.11122">
        <ele>1808.3771972656</ele>
        <time>2013-12-23T15:52:37Z</time>
      </trkpt>
      <trkpt lat="42.88166" lon="0.11125">
        <ele>1802.6091308594</ele>
        <time>2013-12-23T15:53:01Z</time>
      </trkpt>
      <trkpt lat="42.88174" lon="0.11121">
        <ele>1799.7253417969</ele>
        <time>2013-12-23T15:53:56Z</time>
      </trkpt>
      <trkpt lat="42.88173" lon="0.11133">
        <ele>1798.7639160156</ele>
        <time>2013-12-23T15:54:09Z</time>
      </trkpt>
      <trkpt lat="42.88175" lon="0.11149">
        <ele>1793.4768066406</ele>
        <time>2013-12-23T15:54:45Z</time>
      </trkpt>
      <trkpt lat="42.88172" lon="0.11161">
        <ele>1790.1123046875</ele>
        <time>2013-12-23T15:54:51Z</time>
      </trkpt>
      <trkpt lat="42.88174" lon="0.11175">
        <ele>1787.7087402344</ele>
        <time>2013-12-23T15:55:06Z</time>
      </trkpt>
      <trkpt lat="42.88182" lon="0.11195">
        <ele>1779.5375976562</ele>
        <time>2013-12-23T15:55:23Z</time>
      </trkpt>
      <trkpt lat="42.88188" lon="0.11206">
        <ele>1779.0568847656</ele>
        <time>2013-12-23T15:55:45Z</time>
      </trkpt>
      <trkpt lat="42.88197" lon="0.11215">
        <ele>1777.1345214844</ele>
        <time>2013-12-23T15:56:01Z</time>
      </trkpt>
      <trkpt lat="42.88221" lon="0.11232">
        <ele>1771.3662109375</ele>
        <time>2013-12-23T15:56:12Z</time>
      </trkpt>
      <trkpt lat="42.88237" lon="0.11232">
        <ele>1767.0405273438</ele>
        <time>2013-12-23T15:56:17Z</time>
      </trkpt>
      <trkpt lat="42.88277" lon="0.11215">
        <ele>1759.3500976562</ele>
        <time>2013-12-23T15:56:29Z</time>
      </trkpt>
      <trkpt lat="42.88309" lon="0.11204">
        <ele>1754.5432128906</ele>
        <time>2013-12-23T15:56:39Z</time>
      </trkpt>
      <trkpt lat="42.88356" lon="0.11163">
        <ele>1747.8142089844</ele>
        <time>2013-12-23T15:57:09Z</time>
      </trkpt>
      <trkpt lat="42.88383" lon="0.11156">
        <ele>1746.3723144531</ele>
        <time>2013-12-23T15:57:21Z</time>
      </trkpt>
      <trkpt lat="42.88393" lon="0.11133">
        <ele>1745.8916015625</ele>
        <time>2013-12-23T15:57:39Z</time>
      </trkpt>
      <trkpt lat="42.88465" lon="0.11037">
        <ele>1737.7202148438</ele>
        <time>2013-12-23T16:01:15Z</time>
      </trkpt>
      <trkpt lat="42.88562" lon="0.10941">
        <ele>1724.2619628906</ele>
        <time>2013-12-23T16:02:19Z</time>
      </trkpt>
      <trkpt lat="42.88612" lon="0.10901">
        <ele>1715.1293945312</ele>
        <time>2013-12-23T16:02:43Z</time>
      </trkpt>
      <trkpt lat="42.88658" lon="0.10895">
        <ele>1709.8420410156</ele>
        <time>2013-12-23T16:03:20Z</time>
      </trkpt>
      <trkpt lat="42.88668" lon="0.10896">
        <ele>1708.880859375</ele>
        <time>2013-12-23T16:03:27Z</time>
      </trkpt>
      <trkpt lat="42.88666" lon="0.10876">
        <ele>1705.0354003906</ele>
        <time>2013-12-23T16:03:44Z</time>
      </trkpt>
      <trkpt lat="42.88722" lon="0.10864">
        <ele>1695.9030761719</ele>
        <time>2013-12-23T16:04:18Z</time>
      </trkpt>
      <trkpt lat="42.8873" lon="0.10857">
        <ele>1694.9416503906</ele>
        <time>2013-12-23T16:04:39Z</time>
      </trkpt>
      <trkpt lat="42.88769" lon="0.1084">
        <ele>1681.9638671875</ele>
        <time>2013-12-23T16:05:36Z</time>
      </trkpt>
      <trkpt lat="42.88786" lon="0.1083">
        <ele>1678.5993652344</ele>
        <time>2013-12-23T16:06:10Z</time>
      </trkpt>
      <trkpt lat="42.88862" lon="0.108">
        <ele>1668.5053710938</ele>
        <time>2013-12-23T16:06:37Z</time>
      </trkpt>
      <trkpt lat="42.88924" lon="0.10756">
        <ele>1665.1408691406</ele>
        <time>2013-12-23T16:07:17Z</time>
      </trkpt>
      <trkpt lat="42.89045" lon="0.10748">
        <ele>1652.1628417969</ele>
        <time>2013-12-23T16:08:25Z</time>
      </trkpt>
      <trkpt lat="42.89071" lon="0.10729">
        <ele>1649.759765625</ele>
        <time>2013-12-23T16:08:35Z</time>
      </trkpt>
      <trkpt lat="42.89112" lon="0.10731">
        <ele>1644.953125</ele>
        <time>2013-12-23T16:08:48Z</time>
      </trkpt>
      <trkpt lat="42.89163" lon="0.10716">
        <ele>1637.2624511719</ele>
        <time>2013-12-23T16:09:04Z</time>
      </trkpt>
      <trkpt lat="42.89183" lon="0.10722">
        <ele>1636.7817382812</ele>
        <time>2013-12-23T16:09:13Z</time>
      </trkpt>
      <trkpt lat="42.89191" lon="0.10724">
        <ele>1634.3786621094</ele>
        <time>2013-12-23T16:10:02Z</time>
      </trkpt>
      <trkpt lat="42.89188" lon="0.10712">
        <ele>1631.9753417969</ele>
        <time>2013-12-23T16:10:20Z</time>
      </trkpt>
      <trkpt lat="42.89192" lon="0.10699">
        <ele>1628.6108398438</ele>
        <time>2013-12-23T16:10:26Z</time>
      </trkpt>
      <trkpt lat="42.89205" lon="0.107">
        <ele>1626.2072753906</ele>
        <time>2013-12-23T16:10:31Z</time>
      </trkpt>
      <trkpt lat="42.89261" lon="0.10673">
        <ele>1609.8647460938</ele>
        <time>2013-12-23T16:10:56Z</time>
      </trkpt>
      <trkpt lat="42.89285" lon="0.10666">
        <ele>1606.01953125</ele>
        <time>2013-12-23T16:11:05Z</time>
      </trkpt>
      <trkpt lat="42.89371" lon="0.1065">
        <ele>1586.3127441406</ele>
        <time>2013-12-23T16:11:50Z</time>
      </trkpt>
      <trkpt lat="42.8939" lon="0.10658">
        <ele>1581.5061035156</ele>
        <time>2013-12-23T16:11:55Z</time>
      </trkpt>
      <trkpt lat="42.89397" lon="0.10663">
        <ele>1581.0256347656</ele>
        <time>2013-12-23T16:12:22Z</time>
      </trkpt>
      <trkpt lat="42.89395" lon="0.10646">
        <ele>1580.544921875</ele>
        <time>2013-12-23T16:12:27Z</time>
      </trkpt>
      <trkpt lat="42.89396" lon="0.10636">
        <ele>1578.1413574219</ele>
        <time>2013-12-23T16:13:05Z</time>
      </trkpt>
      <trkpt lat="42.89404" lon="0.10641">
        <ele>1576.21875</ele>
        <time>2013-12-23T16:13:27Z</time>
      </trkpt>
      <trkpt lat="42.89405" lon="0.10646">
        <ele>1575.7380371094</ele>
        <time>2013-12-23T16:15:04Z</time>
      </trkpt>
      <trkpt lat="42.89413" lon="0.10639">
        <ele>1575.2573242188</ele>
        <time>2013-12-23T16:16:04Z</time>
      </trkpt>
      <trkpt lat="42.89426" lon="0.10636">
        <ele>1573.3349609375</ele>
        <time>2013-12-23T16:17:30Z</time>
      </trkpt>
      <trkpt lat="42.89438" lon="0.10632">
        <ele>1566.125</ele>
        <time>2013-12-23T16:17:39Z</time>
      </trkpt>
      <trkpt lat="42.8944" lon="0.10618">
        <ele>1564.6831054688</ele>
        <time>2013-12-23T16:17:44Z</time>
      </trkpt>
      <trkpt lat="42.89453" lon="0.10613">
        <ele>1563.2409667969</ele>
        <time>2013-12-23T16:17:49Z</time>
      </trkpt>
      <trkpt lat="42.89464" lon="0.10616">
        <ele>1560.3569335938</ele>
        <time>2013-12-23T16:17:54Z</time>
      </trkpt>
      <trkpt lat="42.89485" lon="0.10606">
        <ele>1555.5505371094</ele>
        <time>2013-12-23T16:18:06Z</time>
      </trkpt>
      <trkpt lat="42.89506" lon="0.10584">
        <ele>1550.2634277344</ele>
        <time>2013-12-23T16:18:24Z</time>
      </trkpt>
      <trkpt lat="42.89514" lon="0.10561">
        <ele>1547.8598632812</ele>
        <time>2013-12-23T16:18:32Z</time>
      </trkpt>
      <trkpt lat="42.89526" lon="0.10556">
        <ele>1545.4565429688</ele>
        <time>2013-12-23T16:18:35Z</time>
      </trkpt>
      <trkpt lat="42.89531" lon="0.10537">
        <ele>1543.5339355469</ele>
        <time>2013-12-23T16:18:39Z</time>
      </trkpt>
      <trkpt lat="42.8956" lon="0.10456">
        <ele>1540.1694335938</ele>
        <time>2013-12-23T16:19:00Z</time>
      </trkpt>
      <trkpt lat="42.89576" lon="0.10464">
        <ele>1537.7661132812</ele>
        <time>2013-12-23T16:19:09Z</time>
      </trkpt>
      <trkpt lat="42.8962" lon="0.10478">
        <ele>1533.4401855469</ele>
        <time>2013-12-23T16:19:23Z</time>
      </trkpt>
      <trkpt lat="42.89653" lon="0.10488">
        <ele>1531.5173339844</ele>
        <time>2013-12-23T16:19:48Z</time>
      </trkpt>
      <trkpt lat="42.89676" lon="0.1048">
        <ele>1527.6721191406</ele>
        <time>2013-12-23T16:19:57Z</time>
      </trkpt>
      <trkpt lat="42.89752" lon="0.10459">
        <ele>1519.9816894531</ele>
        <time>2013-12-23T16:20:15Z</time>
      </trkpt>
      <trkpt lat="42.89779" lon="0.10452">
        <ele>1519.5012207031</ele>
        <time>2013-12-23T16:20:23Z</time>
      </trkpt>
      <trkpt lat="42.89777" lon="0.1047">
        <ele>1516.1364746094</ele>
        <time>2013-12-23T16:20:28Z</time>
      </trkpt>
      <trkpt lat="42.89788" lon="0.10479">
        <ele>1511.810546875</ele>
        <time>2013-12-23T16:20:31Z</time>
      </trkpt>
      <trkpt lat="42.89808" lon="0.10474">
        <ele>1508.9265136719</ele>
        <time>2013-12-23T16:20:34Z</time>
      </trkpt>
      <trkpt lat="42.89829" lon="0.10458">
        <ele>1506.0424804688</ele>
        <time>2013-12-23T16:20:38Z</time>
      </trkpt>
      <trkpt lat="42.89869" lon="0.10444">
        <ele>1503.1586914062</ele>
        <time>2013-12-23T16:20:47Z</time>
      </trkpt>
      <trkpt lat="42.89906" lon="0.10436">
        <ele>1493.5454101562</ele>
        <time>2013-12-23T16:20:51Z</time>
      </trkpt>
      <trkpt lat="42.89925" lon="0.10429">
        <ele>1492.5842285156</ele>
        <time>2013-12-23T16:20:53Z</time>
      </trkpt>
      <trkpt lat="42.89997" lon="0.10416">
        <ele>1492.5842285156</ele>
        <time>2013-12-23T16:21:02Z</time>
      </trkpt>
      <trkpt lat="42.90043" lon="0.10409">
        <ele>1489.7001953125</ele>
        <time>2013-12-23T16:21:12Z</time>
      </trkpt>
      <trkpt lat="42.90072" lon="0.10399">
        <ele>1484.4130859375</ele>
        <time>2013-12-23T16:21:16Z</time>
      </trkpt>
      <trkpt lat="42.901" lon="0.10393">
        <ele>1483.4514160156</ele>
        <time>2013-12-23T16:21:20Z</time>
      </trkpt>
      <trkpt lat="42.90131" lon="0.10383">
        <ele>1479.1254882812</ele>
        <time>2013-12-23T16:21:25Z</time>
      </trkpt>
      <trkpt lat="42.90156" lon="0.10371">
        <ele>1477.68359375</ele>
        <time>2013-12-23T16:21:29Z</time>
      </trkpt>
      <trkpt lat="42.90169" lon="0.1037">
        <ele>1477.203125</ele>
        <time>2013-12-23T16:21:31Z</time>
      </trkpt>
      <trkpt lat="42.90193" lon="0.10359">
        <ele>1473.8383789062</ele>
        <time>2013-12-23T16:21:35Z</time>
      </trkpt>
      <trkpt lat="42.90212" lon="0.10346">
        <ele>1470.4738769531</ele>
        <time>2013-12-23T16:21:38Z</time>
      </trkpt>
      <trkpt lat="42.9023" lon="0.10327">
        <ele>1466.1477050781</ele>
        <time>2013-12-23T16:21:41Z</time>
      </trkpt>
      <trkpt lat="42.9024" lon="0.10313">
        <ele>1465.6672363281</ele>
        <time>2013-12-23T16:21:43Z</time>
      </trkpt>
      <trkpt lat="42.90278" lon="0.10258">
        <ele>1462.783203125</ele>
        <time>2013-12-23T16:21:52Z</time>
      </trkpt>
      <trkpt lat="42.90285" lon="0.10241">
        <ele>1462.3024902344</ele>
        <time>2013-12-23T16:21:54Z</time>
      </trkpt>
      <trkpt lat="42.90294" lon="0.10214">
        <ele>1459.4187011719</ele>
        <time>2013-12-23T16:21:57Z</time>
      </trkpt>
      <trkpt lat="42.90302" lon="0.10181">
        <ele>1455.5734863281</ele>
        <time>2013-12-23T16:22:01Z</time>
      </trkpt>
      <trkpt lat="42.90323" lon="0.10164">
        <ele>1454.1315917969</ele>
        <time>2013-12-23T16:22:08Z</time>
      </trkpt>
      <trkpt lat="42.90325" lon="0.10175">
        <ele>1455.5734863281</ele>
        <time>2013-12-23T16:23:59Z</time>
      </trkpt>
      <trkpt lat="42.9035" lon="0.10159">
        <ele>1453.1701660156</ele>
        <time>2013-12-23T16:24:23Z</time>
      </trkpt>
      <trkpt lat="42.90363" lon="0.1016">
        <ele>1453.1701660156</ele>
        <time>2013-12-23T16:24:40Z</time>
      </trkpt>
      <trkpt lat="42.90364" lon="0.1016">
        <ele>1453.6508789062</ele>
        <time>2013-12-23T16:25:13Z</time>
      </trkpt>
    </trkseg>
  </trk>
</gpx>